sensor_id;sensor_type;location;lat;lon;timestamp;P1;durP1;ratioP1;P2;durP2;ratioP2
51692;SDS011;37777;53.066;21.638;2023-03-01T00:05:00;34.67;;;13.90;;
51692;SDS011;37777;53.066;21.638;2023-03-01T00:12:02;25.10;;;12.40;;
51692;SDS011;37777;53.066;21.638;2023-03-01T00:19:05;37.80;;;13.65;;
51692;SDS011;37777;53.066;21.638;2023-03-01T00:26:09;32.40;;;13.68;;
51692;SDS011;37777;53.066;21.638;2023-03-01T00:33:14;32.53;;;12.32;;
51692;SDS011;37777;53.066;21.638;2023-03-01T00:40:16;29.75;;;12.02;;
51692;SDS011;37777;53.066;21.638;2023-03-01T00:47:18;27.70;;;12.20;;
51692;SDS011;37777;53.066;21.638;2023-03-01T00:54:20;14.27;;;9.38;;
51692;SDS011;37777;53.066;21.638;2023-03-01T01:01:24;8.77;;;6.45;;
51692;SDS011;37777;53.066;21.638;2023-03-01T01:08:29;18.75;;;9.52;;
51692;SDS011;37777;53.066;21.638;2023-03-01T01:15:34;21.10;;;10.95;;
51692;SDS011;37777;53.066;21.638;2023-03-01T01:22:36;27.25;;;12.57;;
51692;SDS011;37777;53.066;21.638;2023-03-01T01:29:38;29.42;;;11.98;;
51692;SDS011;37777;53.066;21.638;2023-03-01T01:36:40;25.55;;;11.15;;
51692;SDS011;37777;53.066;21.638;2023-03-01T01:43:44;22.88;;;10.98;;
51692;SDS011;37777;53.066;21.638;2023-03-01T01:51:07;33.92;;;13.02;;
51692;SDS011;37777;53.066;21.638;2023-03-01T01:58:14;37.45;;;13.05;;
51692;SDS011;37777;53.066;21.638;2023-03-01T02:05:22;24.45;;;11.40;;
51692;SDS011;37777;53.066;21.638;2023-03-01T02:12:28;32.88;;;12.60;;
51692;SDS011;37777;53.066;21.638;2023-03-01T02:19:41;36.90;;;13.15;;
51692;SDS011;37777;53.066;21.638;2023-03-01T02:27:01;22.58;;;11.05;;
51692;SDS011;37777;53.066;21.638;2023-03-01T02:34:03;22.52;;;10.35;;
51692;SDS011;37777;53.066;21.638;2023-03-01T02:41:08;33.58;;;11.38;;
51692;SDS011;37777;53.066;21.638;2023-03-01T02:48:12;32.17;;;12.68;;
51692;SDS011;37777;53.066;21.638;2023-03-01T02:55:15;26.63;;;10.60;;
51692;SDS011;37777;53.066;21.638;2023-03-01T03:02:22;29.55;;;10.95;;
51692;SDS011;37777;53.066;21.638;2023-03-01T03:09:38;29.27;;;12.05;;
51692;SDS011;37777;53.066;21.638;2023-03-01T03:16:40;25.58;;;12.02;;
51692;SDS011;37777;53.066;21.638;2023-03-01T03:23:43;23.00;;;10.80;;
51692;SDS011;37777;53.066;21.638;2023-03-01T03:30:45;22.70;;;10.75;;
51692;SDS011;37777;53.066;21.638;2023-03-01T03:37:48;7.57;;;5.25;;
51692;SDS011;37777;53.066;21.638;2023-03-01T03:45:07;34.42;;;11.20;;
51692;SDS011;37777;53.066;21.638;2023-03-01T03:52:10;25.38;;;10.38;;
51692;SDS011;37777;53.066;21.638;2023-03-01T03:59:15;10.32;;;6.72;;
51692;SDS011;37777;53.066;21.638;2023-03-01T04:06:17;21.65;;;9.75;;
51692;SDS011;37777;53.066;21.638;2023-03-01T04:13:20;24.25;;;10.63;;
51692;SDS011;37777;53.066;21.638;2023-03-01T04:20:24;19.83;;;9.60;;
51692;SDS011;37777;53.066;21.638;2023-03-01T04:27:27;22.65;;;9.75;;
51692;SDS011;37777;53.066;21.638;2023-03-01T04:34:30;23.05;;;11.02;;
51692;SDS011;37777;53.066;21.638;2023-03-01T04:41:32;20.88;;;10.13;;
51692;SDS011;37777;53.066;21.638;2023-03-01T04:48:34;25.88;;;9.93;;
51692;SDS011;37777;53.066;21.638;2023-03-01T04:55:37;26.52;;;10.23;;
51692;SDS011;37777;53.066;21.638;2023-03-01T05:02:38;16.90;;;8.85;;
51692;SDS011;37777;53.066;21.638;2023-03-01T05:09:40;22.88;;;9.65;;
51692;SDS011;37777;53.066;21.638;2023-03-01T05:16:43;17.95;;;9.45;;
51692;SDS011;37777;53.066;21.638;2023-03-01T05:23:45;15.80;;;8.80;;
51692;SDS011;37777;53.066;21.638;2023-03-01T05:30:48;16.58;;;8.43;;
51692;SDS011;37777;53.066;21.638;2023-03-01T05:37:53;15.60;;;9.02;;
51692;SDS011;37777;53.066;21.638;2023-03-01T05:44:55;22.95;;;12.15;;
51692;SDS011;37777;53.066;21.638;2023-03-01T05:51:57;18.88;;;9.10;;
51692;SDS011;37777;53.066;21.638;2023-03-01T05:58:59;19.90;;;9.68;;
51692;SDS011;37777;53.066;21.638;2023-03-01T06:06:02;22.00;;;10.70;;
51692;SDS011;37777;53.066;21.638;2023-03-01T06:13:04;17.02;;;9.75;;
51692;SDS011;37777;53.066;21.638;2023-03-01T06:20:16;21.38;;;10.15;;
51692;SDS011;37777;53.066;21.638;2023-03-01T06:27:22;28.42;;;10.43;;
51692;SDS011;37777;53.066;21.638;2023-03-01T06:34:24;23.30;;;9.80;;
51692;SDS011;37777;53.066;21.638;2023-03-01T06:41:26;29.08;;;13.43;;
51692;SDS011;37777;53.066;21.638;2023-03-01T06:48:28;23.25;;;10.25;;
51692;SDS011;37777;53.066;21.638;2023-03-01T06:55:30;26.70;;;10.77;;
51692;SDS011;37777;53.066;21.638;2023-03-01T07:02:33;21.85;;;9.80;;
51692;SDS011;37777;53.066;21.638;2023-03-01T07:09:35;14.48;;;6.80;;
51692;SDS011;37777;53.066;21.638;2023-03-01T07:16:37;20.10;;;8.98;;
51692;SDS011;37777;53.066;21.638;2023-03-01T07:23:39;20.10;;;10.00;;
51692;SDS011;37777;53.066;21.638;2023-03-01T07:30:42;22.60;;;10.32;;
51692;SDS011;37777;53.066;21.638;2023-03-01T07:37:44;39.55;;;11.88;;
51692;SDS011;37777;53.066;21.638;2023-03-01T07:44:46;21.75;;;10.73;;
51692;SDS011;37777;53.066;21.638;2023-03-01T07:51:48;29.92;;;10.77;;
51692;SDS011;37777;53.066;21.638;2023-03-01T07:58:50;27.83;;;13.38;;
51692;SDS011;37777;53.066;21.638;2023-03-01T08:05:52;28.17;;;12.00;;
51692;SDS011;37777;53.066;21.638;2023-03-01T08:12:54;29.45;;;11.50;;
51692;SDS011;37777;53.066;21.638;2023-03-01T08:19:56;19.50;;;10.55;;
51692;SDS011;37777;53.066;21.638;2023-03-01T08:26:58;23.42;;;9.60;;
51692;SDS011;37777;53.066;21.638;2023-03-01T08:34:00;30.05;;;12.75;;
51692;SDS011;37777;53.066;21.638;2023-03-01T08:41:03;31.08;;;14.35;;
51692;SDS011;37777;53.066;21.638;2023-03-01T08:48:05;31.02;;;12.23;;
51692;SDS011;37777;53.066;21.638;2023-03-01T08:55:07;25.38;;;12.02;;
51692;SDS011;37777;53.066;21.638;2023-03-01T09:02:13;31.40;;;13.32;;
51692;SDS011;37777;53.066;21.638;2023-03-01T09:09:17;30.30;;;13.00;;
51692;SDS011;37777;53.066;21.638;2023-03-01T09:16:19;33.25;;;14.10;;
51692;SDS011;37777;53.066;21.638;2023-03-01T09:23:23;23.75;;;10.93;;
51692;SDS011;37777;53.066;21.638;2023-03-01T09:30:25;27.63;;;11.25;;
51692;SDS011;37777;53.066;21.638;2023-03-01T09:37:27;31.45;;;11.70;;
51692;SDS011;37777;53.066;21.638;2023-03-01T09:51:42;26.45;;;12.60;;
51692;SDS011;37777;53.066;21.638;2023-03-01T09:59:19;25.92;;;11.57;;
51692;SDS011;37777;53.066;21.638;2023-03-01T10:06:20;29.35;;;12.80;;
51692;SDS011;37777;53.066;21.638;2023-03-01T10:28:17;33.72;;;13.50;;
51692;SDS011;37777;53.066;21.638;2023-03-01T10:35:26;43.00;;;14.00;;
51692;SDS011;37777;53.066;21.638;2023-03-01T10:42:31;36.72;;;13.00;;
51692;SDS011;37777;53.066;21.638;2023-03-01T10:49:34;30.10;;;12.80;;
51692;SDS011;37777;53.066;21.638;2023-03-01T10:56:47;32.50;;;14.00;;
51692;SDS011;37777;53.066;21.638;2023-03-01T11:04:16;41.42;;;15.13;;
51692;SDS011;37777;53.066;21.638;2023-03-01T11:11:22;37.65;;;14.45;;
51692;SDS011;37777;53.066;21.638;2023-03-01T11:18:26;37.97;;;14.77;;
51692;SDS011;37777;53.066;21.638;2023-03-01T11:25:48;35.47;;;14.10;;
51692;SDS011;37777;53.066;21.638;2023-03-01T11:32:59;32.55;;;14.68;;
51692;SDS011;37777;53.066;21.638;2023-03-01T11:40:14;45.63;;;15.23;;
51692;SDS011;37777;53.066;21.638;2023-03-01T11:54:57;29.63;;;14.73;;
51692;SDS011;37777;53.066;21.638;2023-03-01T12:02:12;40.55;;;15.70;;
51692;SDS011;37777;53.066;21.638;2023-03-01T12:53:35;36.30;;;15.73;;
51692;SDS011;37777;53.066;21.638;2023-03-01T13:00:45;39.55;;;16.35;;
51692;SDS011;37777;53.066;21.638;2023-03-01T13:07:57;32.70;;;15.18;;
51692;SDS011;37777;53.066;21.638;2023-03-01T13:15:13;39.45;;;16.40;;
51692;SDS011;37777;53.066;21.638;2023-03-01T13:22:28;30.00;;;13.40;;
51692;SDS011;37777;53.066;21.638;2023-03-01T13:29:49;37.83;;;16.83;;
51692;SDS011;37777;53.066;21.638;2023-03-01T13:36:53;40.13;;;15.70;;
51692;SDS011;37777;53.066;21.638;2023-03-01T13:44:33;34.00;;;14.63;;
51692;SDS011;37777;53.066;21.638;2023-03-01T13:51:38;36.97;;;16.83;;
51692;SDS011;37777;53.066;21.638;2023-03-01T14:06:08;33.25;;;14.13;;
51692;SDS011;37777;53.066;21.638;2023-03-01T14:20:42;27.02;;;12.18;;
51692;SDS011;37777;53.066;21.638;2023-03-01T14:27:45;39.00;;;15.23;;
51692;SDS011;37777;53.066;21.638;2023-03-01T14:34:53;41.15;;;16.23;;
51692;SDS011;37777;53.066;21.638;2023-03-01T14:41:55;38.20;;;15.10;;
51692;SDS011;37777;53.066;21.638;2023-03-01T14:49:09;43.28;;;16.73;;
51692;SDS011;37777;53.066;21.638;2023-03-01T14:56:12;32.23;;;15.60;;
51692;SDS011;37777;53.066;21.638;2023-03-01T15:03:35;40.70;;;15.73;;
51692;SDS011;37777;53.066;21.638;2023-03-01T15:10:39;32.08;;;17.00;;
51692;SDS011;37777;53.066;21.638;2023-03-01T15:17:44;38.03;;;16.02;;
51692;SDS011;37777;53.066;21.638;2023-03-01T15:24:50;30.50;;;15.68;;
51692;SDS011;37777;53.066;21.638;2023-03-01T15:39:05;37.33;;;16.55;;
51692;SDS011;37777;53.066;21.638;2023-03-01T15:46:33;42.05;;;17.67;;
51692;SDS011;37777;53.066;21.638;2023-03-01T15:53:37;47.78;;;21.17;;
51692;SDS011;37777;53.066;21.638;2023-03-01T16:00:54;32.75;;;14.68;;
51692;SDS011;37777;53.066;21.638;2023-03-01T16:08:03;32.45;;;14.27;;
51692;SDS011;37777;53.066;21.638;2023-03-01T16:15:11;40.05;;;16.17;;
51692;SDS011;37777;53.066;21.638;2023-03-01T16:22:17;36.15;;;14.25;;
51692;SDS011;37777;53.066;21.638;2023-03-01T16:29:22;37.47;;;18.10;;
51692;SDS011;37777;53.066;21.638;2023-03-01T16:36:26;40.80;;;15.43;;
51692;SDS011;37777;53.066;21.638;2023-03-01T16:43:30;41.92;;;15.38;;
51692;SDS011;37777;53.066;21.638;2023-03-01T16:50:32;34.67;;;16.17;;
51692;SDS011;37777;53.066;21.638;2023-03-01T16:57:35;35.65;;;16.25;;
51692;SDS011;37777;53.066;21.638;2023-03-01T17:04:39;43.33;;;16.60;;
51692;SDS011;37777;53.066;21.638;2023-03-01T17:11:42;42.95;;;17.33;;
51692;SDS011;37777;53.066;21.638;2023-03-01T17:18:45;42.25;;;17.25;;
51692;SDS011;37777;53.066;21.638;2023-03-01T17:25:51;44.78;;;17.02;;
51692;SDS011;37777;53.066;21.638;2023-03-01T17:32:56;48.25;;;18.65;;
51692;SDS011;37777;53.066;21.638;2023-03-01T17:39:59;40.17;;;17.10;;
51692;SDS011;37777;53.066;21.638;2023-03-01T17:47:02;38.13;;;16.05;;
51692;SDS011;37777;53.066;21.638;2023-03-01T17:54:05;37.88;;;17.17;;
51692;SDS011;37777;53.066;21.638;2023-03-01T18:01:08;44.50;;;16.27;;
51692;SDS011;37777;53.066;21.638;2023-03-01T18:08:13;40.13;;;17.45;;
51692;SDS011;37777;53.066;21.638;2023-03-01T18:15:15;38.65;;;16.30;;
51692;SDS011;37777;53.066;21.638;2023-03-01T18:22:20;47.72;;;18.35;;
51692;SDS011;37777;53.066;21.638;2023-03-01T18:29:23;34.85;;;15.93;;
51692;SDS011;37777;53.066;21.638;2023-03-01T18:43:46;58.60;;;17.70;;
51692;SDS011;37777;53.066;21.638;2023-03-01T18:51:09;50.25;;;19.40;;
51692;SDS011;37777;53.066;21.638;2023-03-01T18:58:25;42.03;;;18.52;;
51692;SDS011;37777;53.066;21.638;2023-03-01T19:05:34;47.42;;;18.52;;
51692;SDS011;37777;53.066;21.638;2023-03-01T19:12:39;46.40;;;19.25;;
51692;SDS011;37777;53.066;21.638;2023-03-01T19:19:52;57.13;;;19.65;;
51692;SDS011;37777;53.066;21.638;2023-03-01T19:26:57;53.90;;;20.75;;
51692;SDS011;37777;53.066;21.638;2023-03-01T19:34:02;47.08;;;19.58;;
51692;SDS011;37777;53.066;21.638;2023-03-01T19:41:14;55.95;;;19.70;;
51692;SDS011;37777;53.066;21.638;2023-03-01T19:48:31;55.47;;;20.77;;
51692;SDS011;37777;53.066;21.638;2023-03-01T19:55:38;68.72;;;22.73;;
51692;SDS011;37777;53.066;21.638;2023-03-01T20:02:46;57.40;;;18.88;;
51692;SDS011;37777;53.066;21.638;2023-03-01T20:09:57;44.97;;;17.88;;
51692;SDS011;37777;53.066;21.638;2023-03-01T20:17:00;105.65;;;31.33;;
51692;SDS011;37777;53.066;21.638;2023-03-01T20:24:03;145.30;;;40.97;;
51692;SDS011;37777;53.066;21.638;2023-03-01T20:31:07;130.68;;;40.08;;
51692;SDS011;37777;53.066;21.638;2023-03-01T20:38:31;101.82;;;34.60;;
51692;SDS011;37777;53.066;21.638;2023-03-01T20:45:37;82.63;;;30.45;;
51692;SDS011;37777;53.066;21.638;2023-03-01T20:52:40;81.15;;;28.02;;
51692;SDS011;37777;53.066;21.638;2023-03-01T20:59:48;70.43;;;25.13;;
51692;SDS011;37777;53.066;21.638;2023-03-01T21:06:52;64.43;;;22.45;;
51692;SDS011;37777;53.066;21.638;2023-03-01T21:13:55;37.65;;;16.80;;
51692;SDS011;37777;53.066;21.638;2023-03-01T21:21:01;48.08;;;17.38;;
51692;SDS011;37777;53.066;21.638;2023-03-01T21:28:05;59.38;;;18.75;;
51692;SDS011;37777;53.066;21.638;2023-03-01T21:35:07;44.15;;;18.10;;
51692;SDS011;37777;53.066;21.638;2023-03-01T21:42:10;61.30;;;21.13;;
51692;SDS011;37777;53.066;21.638;2023-03-01T21:49:12;59.13;;;22.20;;
51692;SDS011;37777;53.066;21.638;2023-03-01T21:56:18;68.50;;;23.20;;
51692;SDS011;37777;53.066;21.638;2023-03-01T22:03:22;85.95;;;25.50;;
51692;SDS011;37777;53.066;21.638;2023-03-01T22:10:24;96.15;;;27.40;;
51692;SDS011;37777;53.066;21.638;2023-03-01T22:17:29;102.75;;;33.15;;
51692;SDS011;37777;53.066;21.638;2023-03-01T22:24:32;106.07;;;31.83;;
51692;SDS011;37777;53.066;21.638;2023-03-01T22:31:35;148.23;;;35.75;;
51692;SDS011;37777;53.066;21.638;2023-03-01T22:38:37;112.38;;;32.05;;
51692;SDS011;37777;53.066;21.638;2023-03-01T22:45:40;117.18;;;35.63;;
51692;SDS011;37777;53.066;21.638;2023-03-01T22:52:42;135.27;;;34.40;;
51692;SDS011;37777;53.066;21.638;2023-03-01T22:59:44;128.88;;;36.85;;
51692;SDS011;37777;53.066;21.638;2023-03-01T23:06:46;112.82;;;35.78;;
51692;SDS011;37777;53.066;21.638;2023-03-01T23:13:54;153.63;;;40.25;;
51692;SDS011;37777;53.066;21.638;2023-03-01T23:20:57;146.25;;;39.38;;
51692;SDS011;37777;53.066;21.638;2023-03-01T23:27:59;135.35;;;37.45;;
51692;SDS011;37777;53.066;21.638;2023-03-01T23:35:01;131.65;;;40.15;;
51692;SDS011;37777;53.066;21.638;2023-03-01T23:42:03;110.80;;;31.73;;
51692;SDS011;37777;53.066;21.638;2023-03-01T23:49:05;94.68;;;25.52;;
51692;SDS011;37777;53.066;21.638;2023-03-01T23:56:08;57.60;;;20.20;;
